Pagrindinis puslapis
METAR-TAF:

METAR-TAF

Oro uostai :

Trapanis, Italija

platuma: 37-55N, ilguma: 012-30E, Aukštis: 7 m

Dabartinis oras

Ataskaita buvo paskelbta 54 minutes, ne 12:55 UTC
Vėjas 7 kt iš Vakarų/Pietvakarių
Temperatūra 16°C
Drėgmė 77%
Slėgis 1029 hPa
Matomumas 10 km arba daugiau
nėra debesų žemiau 1500 m ir nėra kamuolinių lietaus debesų

METAR: LICT 251255Z 25007KT CAVOK 16/12 Q1029 RMK SKC VIS MIN 9999 WIND THR13 27007KT BLU

Laikas: 14:49 (13:49 UTC)

Prognozė

Ataskaita buvo paskelbta 2 valandos ir 49 minutes, ne 11:00 UTC
Prognozė galioja nuo 25 metu 12 UTC su 25 metu 21 UTC
Vėjas 7 kt iš Vakarų/Šiaurės Vakarų
Matomumas 10 km arba daugiau
nėra debesų žemiau 1500 m ir nėra kamuolinių lietaus debesų
Tapsmas
nuo 25 metu 17 UTC su 25 metu 19 UTC
Vėjas 5 kt iš Rytų/Šiaurės Rytų

TAF: LICT 251100Z 2512/2521 30007KT CAVOK BECMG 2517/2519 06005KT

Orai ataskaitas ir orų prognozės (METAR, TAF).

turimą stotys yra geltonos ir raudonos taškus žemėlapyje.

Perkelti pele per norėdami pamatyti stoties vardą.

Tada spustelėkite, norėdami matyti oro stebėjimo ir prognozės.

Norėdami pakeisti žemėlapį: spustelėkite ant žalios mygtukų su juodo kryžiaus žemyn,; žalią mygtuką su brūkšneliu, jei norite nutolinti; arba žalių rodyklių gretimoms žemėlapius.


METAR-TAF: